createdAt,value
2023-01-17T00:00:55.919Z,93.90
2023-01-17T00:03:24.509Z,93.80
2023-01-17T00:06:10.777Z,94.00
2023-01-17T00:08:57.156Z,93.80
2023-01-17T00:11:25.283Z,93.60
2023-01-17T00:13:53.500Z,93.60
2023-01-17T00:16:21.990Z,93.40
2023-01-17T00:19:09.959Z,93.70
2023-01-17T00:21:56.199Z,93.40
2023-01-17T00:24:42.281Z,92.90
2023-01-17T00:27:12.999Z,92.90
2023-01-17T00:29:43.739Z,93.00
2023-01-17T00:32:12.517Z,93.00
2023-01-17T00:34:40.915Z,92.80
2023-01-17T00:37:09.877Z,92.40
2023-01-17T00:39:39.987Z,92.50
2023-01-17T00:42:08.230Z,92.30
2023-01-17T00:44:55.408Z,92.20
2023-01-17T00:47:42.362Z,92.10
2023-01-17T00:50:29.209Z,91.70
2023-01-17T00:53:15.901Z,91.60
2023-01-17T00:56:02.065Z,91.50
2023-01-17T00:58:48.482Z,91.30
2023-01-17T01:01:34.677Z,91.30
2023-01-17T01:04:24.693Z,91.20
2023-01-17T01:07:14.260Z,91.20
2023-01-17T01:10:00.642Z,91.10
2023-01-17T01:12:46.636Z,90.80
2023-01-17T01:15:32.596Z,90.80
2023-01-17T01:18:26.461Z,90.70
2023-01-17T01:21:13.531Z,90.80
2023-01-17T01:23:59.709Z,90.70
2023-01-17T01:26:46.017Z,90.60
2023-01-17T01:29:32.160Z,90.60
2023-01-17T01:32:18.255Z,90.60
2023-01-17T01:34:45.965Z,90.70
2023-01-17T01:37:15.652Z,90.10
2023-01-17T01:39:43.280Z,90.40
2023-01-17T01:42:15.759Z,90.40
2023-01-17T01:44:46.160Z,90.30
2023-01-17T01:47:30.873Z,90.40
2023-01-17T01:50:01.574Z,90.40
2023-01-17T01:52:34.860Z,90.20
2023-01-17T01:55:32.935Z,90.10
2023-01-17T01:58:04.382Z,90.10
2023-01-17T02:00:36.529Z,90.00
2023-01-17T02:03:09.942Z,90.10
2023-01-17T02:05:37.874Z,89.90
2023-01-17T02:08:17.168Z,89.90
2023-01-17T02:10:45.322Z,90.00
2023-01-17T02:13:15.665Z,90.00
2023-01-17T02:16:23.931Z,90.20
2023-01-17T02:18:58.895Z,90.00
2023-01-17T02:21:35.876Z,89.50
2023-01-17T02:24:15.627Z,89.90
2023-01-17T02:26:50.630Z,89.80
2023-01-17T02:29:56.792Z,90.10
2023-01-17T02:32:39.352Z,89.90
2023-01-17T02:35:13.830Z,89.80
2023-01-17T02:38:10.866Z,89.80
2023-01-17T02:40:55.790Z,90.10
2023-01-17T02:43:24.624Z,90.00
2023-01-17T02:45:53.028Z,89.70
2023-01-17T02:48:24.868Z,89.90
2023-01-17T02:51:30.125Z,89.80
2023-01-17T02:54:35.039Z,89.80
2023-01-17T02:57:21.914Z,89.70
2023-01-17T03:00:03.737Z,89.90
2023-01-17T03:02:43.221Z,89.50
2023-01-17T03:05:14.946Z,89.80
2023-01-17T03:07:44.271Z,89.50
2023-01-17T03:10:14.712Z,89.20
2023-01-17T03:12:43.080Z,89.00
2023-01-17T03:15:15.864Z,89.40
2023-01-17T03:17:49.280Z,88.80
2023-01-17T03:20:22.291Z,88.60
2023-01-17T03:22:50.081Z,88.50
2023-01-17T03:25:17.682Z,88.70
2023-01-17T03:27:46.230Z,88.80
2023-01-17T03:30:13.856Z,88.80
2023-01-17T03:32:41.341Z,88.30
2023-01-17T03:35:09.176Z,88.40
2023-01-17T03:37:36.614Z,88.40
2023-01-17T03:40:04.824Z,88.20
2023-01-17T03:42:32.231Z,88.00
2023-01-17T03:44:59.524Z,87.90
2023-01-17T03:47:26.810Z,87.50
2023-01-17T03:49:54.119Z,87.90
2023-01-17T03:52:21.751Z,88.00
2023-01-17T03:54:49.133Z,88.40
2023-01-17T03:57:16.646Z,88.40
2023-01-17T03:59:44.927Z,88.40
2023-01-17T04:02:12.824Z,88.30
2023-01-17T04:04:41.085Z,88.30
2023-01-17T04:07:09.018Z,88.20
2023-01-17T04:09:39.225Z,88.00
2023-01-17T04:12:09.584Z,87.90
2023-01-17T04:14:37.113Z,88.30
2023-01-17T04:17:04.513Z,88.20
2023-01-17T04:19:34.589Z,88.50
2023-01-17T04:22:02.113Z,88.00
2023-01-17T04:24:29.610Z,87.20
2023-01-17T04:26:57.214Z,87.80
2023-01-17T04:29:24.704Z,87.80
2023-01-17T04:31:52.099Z,87.80
2023-01-17T04:34:19.851Z,87.60
2023-01-17T04:36:47.324Z,87.60
2023-01-17T04:39:14.979Z,87.50
2023-01-17T04:41:43.763Z,87.60
2023-01-17T04:44:11.398Z,87.90
2023-01-17T04:46:39.254Z,88.60
2023-01-17T04:49:06.899Z,88.30
2023-01-17T04:51:34.235Z,88.00
2023-01-17T04:54:05.157Z,87.90
2023-01-17T04:56:32.621Z,88.00
2023-01-17T04:59:00.098Z,88.40
2023-01-17T05:01:28.003Z,88.30
2023-01-17T05:03:55.397Z,88.60
2023-01-17T05:06:23.064Z,88.70
2023-01-17T05:08:50.801Z,88.90
2023-01-17T05:11:18.678Z,89.00
2023-01-17T05:13:51.236Z,89.30
2023-01-17T05:16:19.461Z,89.40
2023-01-17T05:18:47.081Z,89.40
2023-01-17T05:21:15.346Z,89.40
2023-01-17T05:23:43.064Z,89.60
2023-01-17T05:26:10.421Z,89.50
2023-01-17T05:28:38.051Z,90.00
2023-01-17T05:31:05.795Z,89.90
2023-01-17T05:33:33.261Z,90.00
2023-01-17T05:36:00.777Z,90.00
2023-01-17T05:38:29.050Z,90.20
2023-01-17T05:41:02.549Z,90.00
2023-01-17T05:43:29.949Z,90.10
2023-01-17T05:45:57.473Z,90.10
2023-01-17T05:48:25.590Z,90.10
2023-01-17T05:50:52.926Z,90.30
2023-01-17T05:53:20.311Z,90.40
2023-01-17T05:55:48.139Z,90.30
2023-01-17T05:58:19.125Z,90.40
2023-01-17T06:00:47.622Z,90.40
2023-01-17T06:03:15.991Z,90.60
2023-01-17T06:05:44.777Z,90.60
2023-01-17T06:08:12.095Z,90.60
2023-01-17T06:10:39.818Z,90.60
2023-01-17T06:13:12.599Z,90.60
2023-01-17T06:15:40.907Z,90.80
2023-01-17T06:18:13.791Z,90.70
2023-01-17T06:20:41.673Z,90.80
2023-01-17T06:23:12.395Z,90.60
2023-01-17T06:25:45.343Z,90.60
2023-01-17T06:28:18.182Z,90.70
2023-01-17T06:30:46.190Z,90.70
2023-01-17T06:33:14.332Z,90.70
2023-01-17T06:35:52.730Z,90.80
2023-01-17T06:38:20.896Z,90.70
2023-01-17T06:40:48.819Z,90.70
2023-01-17T06:43:16.387Z,90.70
2023-01-17T06:45:43.710Z,90.70
2023-01-17T06:48:11.100Z,90.60
2023-01-17T06:50:38.703Z,90.70
2023-01-17T06:53:08.172Z,90.70
2023-01-17T06:55:39.523Z,90.60
2023-01-17T06:58:08.480Z,90.70
2023-01-17T07:00:37.600Z,90.80
2023-01-17T07:03:15.245Z,90.90
2023-01-17T07:05:42.941Z,91.00
2023-01-17T07:08:10.732Z,91.00
2023-01-17T07:10:38.175Z,90.80
2023-01-17T07:13:09.418Z,91.00
2023-01-17T07:15:36.871Z,91.00
2023-01-17T07:18:04.600Z,91.00
2023-01-17T07:20:33.075Z,90.90
2023-01-17T07:23:00.704Z,91.10
2023-01-17T07:25:28.694Z,90.90
2023-01-17T07:27:57.617Z,91.10
2023-01-17T07:30:25.392Z,90.80
2023-01-17T07:32:56.144Z,90.80
2023-01-17T07:35:26.576Z,90.80
2023-01-17T07:37:54.951Z,90.80
2023-01-17T07:40:24.621Z,90.90
2023-01-17T07:42:52.826Z,91.00
2023-01-17T07:45:21.823Z,91.10
2023-01-17T07:47:50.029Z,91.20
2023-01-17T07:50:17.694Z,91.20
2023-01-17T07:52:52.059Z,91.10
2023-01-17T07:55:22.036Z,91.20
2023-01-17T07:57:50.751Z,91.20
2023-01-17T08:00:18.619Z,91.10
2023-01-17T08:02:46.062Z,91.10
2023-01-17T08:05:13.502Z,91.10
2023-01-17T08:07:41.098Z,91.30
2023-01-17T08:10:13.074Z,91.50
2023-01-17T08:12:49.832Z,91.30
2023-01-17T08:15:18.265Z,91.30
2023-01-17T08:17:47.444Z,91.30
2023-01-17T08:20:16.063Z,91.30
2023-01-17T08:22:43.447Z,91.30
2023-01-17T08:25:12.246Z,91.30
2023-01-17T08:27:39.850Z,91.40
2023-01-17T08:30:08.441Z,91.50
2023-01-17T08:32:35.953Z,91.60
2023-01-17T08:35:03.521Z,91.30
2023-01-17T08:37:30.806Z,91.70
2023-01-17T08:39:58.038Z,91.80
2023-01-17T08:42:25.674Z,91.90
2023-01-17T08:44:53.179Z,91.90
2023-01-17T08:47:20.645Z,91.90
2023-01-17T08:49:48.177Z,91.90
2023-01-17T08:52:15.624Z,91.60
2023-01-17T08:54:43.835Z,91.60
2023-01-17T08:57:11.348Z,91.50
2023-01-17T08:59:38.738Z,91.40
2023-01-17T09:02:16.848Z,91.20
2023-01-17T09:04:50.338Z,90.80
2023-01-17T09:07:19.558Z,90.70
2023-01-17T09:09:52.999Z,90.40
2023-01-17T09:12:24.155Z,90.20
2023-01-17T09:14:52.480Z,89.80
2023-01-17T09:17:20.751Z,88.40
2023-01-17T09:19:49.041Z,88.10
2023-01-17T09:22:17.031Z,86.90
2023-01-17T09:24:45.829Z,85.20
2023-01-17T09:27:13.646Z,85.30
2023-01-17T09:29:41.033Z,84.40
2023-01-17T09:32:08.424Z,83.40
2023-01-17T09:34:38.314Z,83.20
2023-01-17T09:37:05.746Z,82.00
2023-01-17T09:39:33.420Z,81.00
2023-01-17T09:42:34.133Z,81.30
2023-01-17T09:45:02.396Z,80.80
2023-01-17T09:47:35.689Z,79.80
2023-01-17T09:50:27.599Z,79.20
2023-01-17T09:53:13.115Z,79.30
2023-01-17T09:55:48.757Z,77.60
2023-01-17T09:58:41.123Z,76.30
2023-01-17T10:01:39.716Z,76.70
2023-01-17T10:04:38.261Z,77.20
2023-01-17T10:07:24.309Z,75.90
2023-01-17T10:10:13.962Z,75.70
2023-01-17T10:12:57.534Z,75.60
2023-01-17T10:15:46.963Z,73.80
2023-01-17T10:18:39.311Z,74.40
2023-01-17T10:21:17.252Z,73.80
2023-01-17T10:24:18.888Z,74.20
2023-01-17T10:26:53.550Z,74.20
2023-01-17T10:29:22.823Z,73.10
2023-01-17T10:31:58.988Z,73.20
2023-01-17T10:34:39.626Z,73.00
2023-01-17T10:37:23.794Z,72.90
2023-01-17T10:39:55.959Z,73.00
2023-01-17T10:42:31.089Z,71.60
2023-01-17T10:45:07.362Z,71.40
2023-01-17T10:47:38.037Z,71.60
2023-01-17T10:50:05.955Z,71.40
2023-01-17T10:52:43.416Z,71.00
2023-01-17T10:55:53.332Z,71.50
2023-01-17T10:58:22.271Z,71.70
2023-01-17T11:01:20.476Z,70.40
2023-01-17T11:03:51.368Z,71.90
2023-01-17T11:06:34.834Z,71.20
2023-01-17T11:42:06.435Z,71.50
2023-01-17T11:44:56.332Z,69.30
2023-01-17T12:02:32.243Z,71.50
2023-01-17T12:05:38.168Z,71.80
2023-01-17T12:08:15.394Z,71.30
2023-01-17T12:10:49.211Z,69.80
2023-01-17T12:13:53.398Z,69.60
2023-01-17T12:16:59.258Z,69.80
2023-01-17T12:19:43.944Z,70.40
2023-01-17T12:22:35.690Z,69.00
2023-01-17T12:25:14.676Z,68.20
2023-01-17T12:28:40.761Z,67.40
2023-01-17T12:31:29.597Z,68.90
2023-01-17T12:34:24.342Z,67.40
2023-01-17T12:36:55.352Z,66.10
2023-01-17T12:39:27.944Z,65.70
2023-01-17T12:42:21.051Z,67.20
2023-01-17T12:45:32.669Z,68.60
2023-01-17T12:48:07.005Z,68.90
2023-01-17T12:50:42.054Z,68.00
2023-01-17T12:53:27.864Z,67.60
2023-01-17T12:56:13.196Z,68.70
2023-01-17T12:58:47.582Z,68.20
2023-01-17T13:01:30.098Z,68.70
2023-01-17T13:04:16.148Z,67.40
2023-01-17T13:07:00.710Z,67.20
2023-01-17T13:09:52.349Z,67.40
2023-01-17T13:12:22.884Z,67.30
2023-01-17T13:14:51.202Z,66.00
2023-01-17T13:17:51.343Z,66.00
2023-01-17T13:20:56.277Z,66.70
2023-01-17T13:23:40.792Z,66.20
2023-01-17T13:26:24.308Z,66.00
2023-01-17T13:29:21.996Z,65.90
2023-01-17T13:32:04.565Z,66.20
2023-01-17T13:34:41.431Z,64.40
2023-01-17T13:37:49.901Z,64.30
2023-01-17T13:40:37.062Z,64.70
2023-01-17T13:43:19.581Z,64.90
2023-01-17T13:45:56.434Z,67.00
2023-01-17T13:48:27.389Z,66.70
2023-01-17T13:50:57.470Z,63.80
2023-01-17T13:53:34.398Z,64.60
2023-01-17T13:56:06.239Z,64.90
2023-01-17T13:58:54.433Z,63.80
2023-01-17T14:01:24.931Z,64.20
2023-01-17T14:03:52.835Z,64.00
2023-01-17T14:06:41.439Z,63.30
2023-01-17T14:09:39.649Z,63.40
2023-01-17T14:12:26.606Z,64.00
2023-01-17T14:14:56.634Z,62.10
2023-01-17T14:17:25.639Z,61.80
2023-01-17T14:20:05.868Z,62.70
2023-01-17T14:22:38.408Z,61.90
2023-01-17T14:25:12.079Z,60.70
2023-01-17T14:28:20.438Z,60.30
2023-01-17T14:30:54.249Z,61.40
2023-01-17T14:33:36.232Z,60.50
2023-01-17T14:36:22.259Z,60.20
2023-01-17T14:38:49.865Z,60.50
2023-01-17T14:41:35.972Z,59.80
2023-01-17T14:44:05.039Z,59.70
2023-01-17T14:46:34.915Z,59.70
2023-01-17T14:49:15.623Z,60.40
2023-01-17T14:51:43.316Z,61.00
2023-01-17T14:54:21.185Z,60.50
2023-01-17T14:56:49.445Z,61.60
2023-01-17T14:59:21.944Z,60.20
2023-01-17T15:02:07.265Z,60.60
2023-01-17T15:04:39.663Z,60.90
2023-01-17T15:07:12.549Z,61.60
2023-01-17T15:09:43.733Z,61.80
2023-01-17T15:12:14.388Z,62.40
2023-01-17T15:14:45.787Z,62.40
2023-01-17T15:17:24.479Z,62.80
2023-01-17T15:20:06.431Z,62.80
2023-01-17T15:22:37.336Z,63.80
2023-01-17T15:25:05.664Z,63.60
2023-01-17T15:27:33.480Z,63.80
2023-01-17T15:30:03.846Z,64.10
2023-01-17T15:32:31.717Z,63.90
2023-01-17T15:35:02.688Z,63.60
2023-01-17T15:37:32.521Z,64.00
2023-01-17T15:40:07.569Z,64.10
2023-01-17T15:42:38.521Z,64.30
2023-01-17T15:45:11.952Z,64.50
2023-01-17T15:47:39.615Z,64.60
2023-01-17T15:50:24.089Z,65.00
2023-01-17T15:52:53.771Z,65.40
2023-01-17T15:55:32.291Z,65.20
2023-01-17T15:58:03.322Z,65.30
2023-01-17T16:00:37.720Z,65.60
2023-01-17T16:03:20.975Z,65.80
2023-01-17T16:05:49.116Z,66.60
2023-01-17T16:08:16.449Z,66.30
2023-01-17T16:10:44.238Z,67.80
2023-01-17T16:13:13.488Z,66.50
2023-01-17T16:15:41.311Z,66.60
2023-01-17T16:18:22.919Z,66.40
2023-01-17T16:20:56.523Z,66.50
2023-01-17T16:23:23.872Z,66.60
2023-01-17T16:25:51.341Z,66.70
2023-01-17T16:28:18.879Z,67.20
2023-01-17T16:30:48.760Z,67.40
2023-01-17T16:33:16.055Z,67.90
2023-01-17T16:35:43.474Z,68.90
2023-01-17T16:38:15.379Z,69.30
2023-01-17T16:40:45.329Z,70.50
2023-01-17T16:43:18.141Z,71.40
2023-01-17T16:45:54.384Z,72.10
2023-01-17T16:48:32.055Z,72.90
2023-01-17T16:51:31.285Z,72.50
2023-01-17T16:54:02.378Z,72.70
2023-01-17T16:56:34.305Z,73.70
2023-01-17T16:59:05.202Z,73.90
2023-01-17T17:01:36.444Z,73.80
2023-01-17T17:04:28.029Z,74.40
2023-01-17T17:06:55.994Z,75.30
2023-01-17T17:09:27.645Z,74.90
2023-01-17T17:11:59.401Z,74.30
2023-01-17T17:14:28.551Z,74.80
2023-01-17T17:16:57.143Z,74.40
2023-01-17T17:19:25.414Z,74.40
2023-01-17T17:21:53.532Z,74.40
2023-01-17T17:29:22.691Z,73.80
2023-01-17T17:31:53.285Z,74.00
2023-01-17T17:34:29.842Z,73.90
2023-01-17T17:37:04.904Z,74.30
2023-01-17T17:39:33.676Z,74.10
2023-01-17T17:42:06.095Z,73.90
2023-01-17T17:44:36.853Z,73.70
2023-01-17T17:47:13.614Z,73.60
2023-01-17T17:49:58.642Z,73.50
2023-01-17T17:52:32.699Z,73.50
2023-01-17T17:55:01.357Z,72.90
2023-01-17T17:57:35.090Z,73.30
2023-01-17T18:00:05.149Z,73.30
2023-01-17T18:02:34.154Z,73.40
2023-01-17T18:05:02.388Z,73.40
2023-01-17T18:07:33.028Z,73.20
2023-01-17T18:10:01.705Z,73.60
2023-01-17T18:12:33.759Z,73.70
2023-01-17T18:15:01.637Z,73.80
2023-01-17T18:17:29.035Z,73.50
2023-01-17T18:20:27.128Z,73.90
2023-01-17T18:26:53.441Z,73.90
2023-01-17T18:29:26.332Z,74.50
2023-01-17T18:31:58.357Z,74.80
2023-01-17T18:34:29.695Z,75.30
2023-01-17T18:36:57.730Z,75.20
2023-01-17T18:39:28.246Z,75.20
2023-01-17T18:41:56.760Z,75.30
2023-01-17T18:44:25.113Z,74.80
2023-01-17T18:47:05.967Z,75.80
2023-01-17T18:49:50.379Z,75.40
2023-01-17T18:52:59.381Z,75.60
2023-01-17T18:55:27.250Z,76.10
2023-01-17T18:57:55.089Z,76.00
2023-01-17T19:00:23.724Z,75.10
2023-01-17T19:02:56.021Z,75.00
2023-01-17T19:05:24.663Z,75.50
2023-01-17T19:08:51.607Z,75.70
2023-01-17T19:11:27.082Z,76.10
2023-01-17T19:13:58.298Z,75.80
2023-01-17T19:16:29.105Z,75.70
2023-01-17T19:19:30.090Z,74.80
2023-01-17T19:21:59.197Z,74.70
2023-01-17T19:24:26.923Z,75.20
2023-01-17T19:27:15.071Z,75.90
2023-01-17T19:30:34.655Z,75.10
2023-01-17T19:36:29.387Z,76.10
2023-01-17T19:39:06.200Z,76.20
2023-01-17T19:41:36.535Z,75.60
2023-01-17T19:44:25.374Z,77.00
2023-01-17T19:47:17.862Z,77.10
2023-01-17T19:49:45.809Z,75.60
2023-01-17T19:52:19.215Z,75.70
2023-01-17T19:54:47.287Z,77.40
2023-01-17T19:57:15.413Z,75.60
2023-01-17T19:59:43.290Z,75.90
2023-01-17T20:02:11.641Z,77.00
2023-01-17T20:04:40.069Z,76.40
2023-01-17T20:07:07.620Z,76.30
2023-01-17T20:09:37.775Z,76.30
2023-01-17T20:12:05.973Z,76.00
2023-01-17T20:14:35.107Z,76.10
2023-01-17T20:17:03.655Z,77.00
2023-01-17T20:19:34.991Z,77.20
2023-01-17T20:22:03.030Z,77.20
2023-01-17T20:24:31.192Z,77.20
2023-01-17T20:30:21.743Z,77.70
2023-01-17T20:32:51.538Z,77.60
2023-01-17T20:35:29.105Z,77.30
2023-01-17T20:38:18.131Z,76.10
2023-01-17T20:44:16.523Z,77.70
2023-01-17T20:46:46.401Z,77.10
2023-01-17T20:49:19.320Z,78.50
2023-01-17T20:59:23.326Z,78.30
2023-01-17T21:01:57.137Z,78.70
2023-01-17T21:04:26.183Z,76.90
2023-01-17T21:06:57.564Z,76.80
2023-01-17T21:09:25.952Z,77.40
2023-01-17T21:19:13.447Z,77.50
2023-01-17T21:21:49.872Z,77.60
2023-01-17T21:24:19.668Z,78.20
2023-01-17T21:26:47.342Z,78.40
2023-01-17T21:29:18.920Z,78.70
2023-01-17T21:31:47.363Z,78.40
2023-01-17T21:34:17.590Z,78.40
2023-01-17T21:37:39.047Z,78.30
2023-01-17T21:40:08.279Z,78.60
2023-01-17T21:42:45.073Z,78.40
2023-01-17T21:45:40.475Z,78.50
2023-01-17T21:48:19.492Z,78.40
2023-01-17T21:51:15.958Z,78.60
2023-01-17T21:53:52.015Z,78.20
2023-01-17T22:16:39.511Z,79.30
2023-01-17T22:19:12.465Z,77.90
2023-01-17T22:21:40.441Z,78.70
2023-01-17T22:24:09.523Z,78.10
2023-01-17T22:26:39.921Z,78.20
2023-01-17T22:35:47.395Z,80.00
2023-01-17T22:48:10.115Z,80.60
2023-01-17T22:50:38.461Z,79.90
2023-01-17T22:53:09.187Z,80.20
2023-01-17T22:55:37.146Z,80.80
2023-01-17T22:58:05.048Z,80.00
2023-01-17T23:00:32.969Z,81.00
2023-01-17T23:03:01.172Z,81.00
2023-01-17T23:05:29.814Z,81.20
2023-01-17T23:11:43.624Z,82.40
2023-01-17T23:14:24.543Z,81.50
2023-01-17T23:18:02.010Z,82.30
2023-01-17T23:20:29.939Z,81.80
2023-01-17T23:22:58.224Z,81.00
2023-01-17T23:25:26.530Z,81.60
2023-01-17T23:31:44.494Z,81.50
2023-01-17T23:34:12.770Z,80.00
2023-01-17T23:36:40.643Z,81.50
2023-01-17T23:42:36.627Z,81.60
2023-01-17T23:45:04.903Z,80.40
2023-01-17T23:47:32.841Z,80.40
2023-01-17T23:50:00.789Z,79.80
2023-01-17T23:52:28.699Z,79.80
2023-01-17T23:54:56.854Z,79.50
